sensor_id;sensor_type;location;lat;lon;timestamp;pressure;altitude;pressure_sealevel;temperature;humidity
7309;BME280;3695;53.330;9.876;2023-05-24T00:00:13;103069.94;;;9.01;100.00
7309;BME280;3695;53.330;9.876;2023-05-24T00:02:40;103076.53;;;9.16;100.00
7309;BME280;3695;53.330;9.876;2023-05-24T00:05:07;103074.38;;;8.92;100.00
7309;BME280;3695;53.330;9.876;2023-05-24T00:07:35;103079.44;;;9.05;100.00
7309;BME280;3695;53.330;9.876;2023-05-24T00:10:01;103089.50;;;9.12;100.00
7309;BME280;3695;53.330;9.876;2023-05-24T00:12:29;103093.06;;;9.13;100.00
7309;BME280;3695;53.330;9.876;2023-05-24T00:14:55;103090.91;;;9.17;100.00
7309;BME280;3695;53.330;9.876;2023-05-24T00:17:22;103095.78;;;9.13;100.00
7309;BME280;3695;53.330;9.876;2023-05-24T00:19:49;103095.38;;;9.08;100.00
7309;BME280;3695;53.330;9.876;2023-05-24T00:22:16;103076.91;;;9.03;100.00
7309;BME280;3695;53.330;9.876;2023-05-24T00:24:45;103079.31;;;9.24;100.00
7309;BME280;3695;53.330;9.876;2023-05-24T00:27:12;103101.03;;;9.14;100.00
7309;BME280;3695;53.330;9.876;2023-05-24T00:29:40;103093.75;;;9.15;100.00
7309;BME280;3695;53.330;9.876;2023-05-24T00:32:06;103120.28;;;9.29;100.00
7309;BME280;3695;53.330;9.876;2023-05-24T00:34:34;103120.59;;;9.26;100.00
7309;BME280;3695;53.330;9.876;2023-05-24T00:37:00;103095.94;;;9.29;100.00
7309;BME280;3695;53.330;9.876;2023-05-24T00:39:26;103087.56;;;9.05;100.00
7309;BME280;3695;53.330;9.876;2023-05-24T00:41:53;103092.75;;;9.16;100.00
7309;BME280;3695;53.330;9.876;2023-05-24T00:44:19;103105.44;;;9.33;100.00
7309;BME280;3695;53.330;9.876;2023-05-24T00:46:47;103118.59;;;9.28;100.00
7309;BME280;3695;53.330;9.876;2023-05-24T00:49:14;103108.50;;;9.03;100.00
7309;BME280;3695;53.330;9.876;2023-05-24T00:51:40;103118.41;;;9.12;100.00
7309;BME280;3695;53.330;9.876;2023-05-24T00:54:07;103135.22;;;9.33;100.00
7309;BME280;3695;53.330;9.876;2023-05-24T00:56:33;103129.16;;;9.49;100.00
7309;BME280;3695;53.330;9.876;2023-05-24T00:59:00;103118.50;;;9.20;100.00
7309;BME280;3695;53.330;9.876;2023-05-24T01:01:27;103117.41;;;9.13;100.00
7309;BME280;3695;53.330;9.876;2023-05-24T01:03:56;103126.75;;;9.01;100.00
7309;BME280;3695;53.330;9.876;2023-05-24T01:06:24;103126.63;;;9.20;100.00
7309;BME280;3695;53.330;9.876;2023-05-24T01:09:07;103100.56;;;8.92;100.00
7309;BME280;3695;53.330;9.876;2023-05-24T01:11:45;103132.66;;;9.14;100.00
7309;BME280;3695;53.330;9.876;2023-05-24T01:14:21;103146.03;;;9.33;100.00
7309;BME280;3695;53.330;9.876;2023-05-24T01:16:55;103133.44;;;9.24;100.00
7309;BME280;3695;53.330;9.876;2023-05-24T01:19:48;103131.72;;;9.23;100.00
7309;BME280;3695;53.330;9.876;2023-05-24T01:22:42;103144.94;;;9.26;100.00
7309;BME280;3695;53.330;9.876;2023-05-24T01:25:18;103134.72;;;9.48;100.00
7309;BME280;3695;53.330;9.876;2023-05-24T01:27:49;103110.56;;;9.36;100.00
7309;BME280;3695;53.330;9.876;2023-05-24T01:30:17;103120.59;;;9.26;100.00
7309;BME280;3695;53.330;9.876;2023-05-24T01:32:44;103113.09;;;9.20;100.00
7309;BME280;3695;53.330;9.876;2023-05-24T01:35:10;103123.69;;;9.31;100.00
7309;BME280;3695;53.330;9.876;2023-05-24T01:37:37;103115.78;;;9.20;100.00
7309;BME280;3695;53.330;9.876;2023-05-24T01:40:04;103125.31;;;9.24;100.00
7309;BME280;3695;53.330;9.876;2023-05-24T01:42:35;103125.31;;;9.24;100.00
7309;BME280;3695;53.330;9.876;2023-05-24T01:45:13;103122.59;;;9.24;100.00
7309;BME280;3695;53.330;9.876;2023-05-24T01:48:00;103118.19;;;9.05;100.00
7309;BME280;3695;53.330;9.876;2023-05-24T01:50:31;103130.09;;;9.12;100.00
7309;BME280;3695;53.330;9.876;2023-05-24T01:53:02;103128.53;;;9.10;100.00
7309;BME280;3695;53.330;9.876;2023-05-24T01:55:31;103145.03;;;9.34;100.00
7309;BME280;3695;53.330;9.876;2023-05-24T01:58:01;103133.91;;;9.37;100.00
7309;BME280;3695;53.330;9.876;2023-05-24T02:00:34;103131.69;;;9.51;100.00
7309;BME280;3695;53.330;9.876;2023-05-24T02:03:01;103090.81;;;9.08;100.00
7309;BME280;3695;53.330;9.876;2023-05-24T02:05:30;103134.13;;;9.26;100.00
7309;BME280;3695;53.330;9.876;2023-05-24T02:07:57;103109.59;;;9.10;100.00
7309;BME280;3695;53.330;9.876;2023-05-24T02:10:23;103119.31;;;9.03;100.00
7309;BME280;3695;53.330;9.876;2023-05-24T02:12:50;103143.94;;;9.27;100.00
7309;BME280;3695;53.330;9.876;2023-05-24T02:15:16;103117.09;;;9.16;100.00
7309;BME280;3695;53.330;9.876;2023-05-24T02:17:44;103131.50;;;9.17;100.00
7309;BME280;3695;53.330;9.876;2023-05-24T02:20:12;103109.44;;;8.84;100.00
7309;BME280;3695;53.330;9.876;2023-05-24T02:22:38;103133.13;;;8.72;100.00
7309;BME280;3695;53.330;9.876;2023-05-24T02:25:05;103135.34;;;8.87;100.00
7309;BME280;3695;53.330;9.876;2023-05-24T02:27:32;103154.50;;;9.03;100.00
7309;BME280;3695;53.330;9.876;2023-05-24T02:29:58;103152.66;;;8.94;100.00
7309;BME280;3695;53.330;9.876;2023-05-24T02:32:25;103145.16;;;9.15;100.00
7309;BME280;3695;53.330;9.876;2023-05-24T02:34:53;103109.09;;;8.97;100.00
7309;BME280;3695;53.330;9.876;2023-05-24T02:37:19;103113.06;;;9.02;100.00
7309;BME280;3695;53.330;9.876;2023-05-24T02:39:45;103126.16;;;9.25;100.00
7309;BME280;3695;53.330;9.876;2023-05-24T02:42:12;103125.28;;;9.06;100.00
7309;BME280;3695;53.330;9.876;2023-05-24T02:44:39;103117.31;;;9.05;100.00
7309;BME280;3695;53.330;9.876;2023-05-24T02:47:07;103122.72;;;9.05;100.00
7309;BME280;3695;53.330;9.876;2023-05-24T02:49:33;103131.00;;;9.03;100.00
7309;BME280;3695;53.330;9.876;2023-05-24T02:52:01;103136.84;;;9.26;100.00
7309;BME280;3695;53.330;9.876;2023-05-24T02:54:27;103130.19;;;9.38;100.00
7309;BME280;3695;53.330;9.876;2023-05-24T02:56:54;103113.78;;;9.22;100.00
7309;BME280;3695;53.330;9.876;2023-05-24T02:59:22;103111.00;;;9.14;100.00
7309;BME280;3695;53.330;9.876;2023-05-24T03:01:48;103121.16;;;9.30;100.00
7309;BME280;3695;53.330;9.876;2023-05-24T03:04:15;103113.09;;;9.20;100.00
7309;BME280;3695;53.330;9.876;2023-05-24T03:06:42;103089.06;;;8.90;100.00
7309;BME280;3695;53.330;9.876;2023-05-24T03:09:10;103123.34;;;8.99;100.00
7309;BME280;3695;53.330;9.876;2023-05-24T03:11:36;103089.25;;;8.78;100.00
7309;BME280;3695;53.330;9.876;2023-05-24T03:14:03;103125.38;;;9.14;100.00
7309;BME280;3695;53.330;9.876;2023-05-24T03:16:30;103118.81;;;9.17;100.00
7309;BME280;3695;53.330;9.876;2023-05-24T03:18:57;103108.50;;;8.75;100.00
7309;BME280;3695;53.330;9.876;2023-05-24T03:21:24;103134.72;;;8.93;100.00
7309;BME280;3695;53.330;9.876;2023-05-24T03:23:51;103131.19;;;9.20;100.00
7309;BME280;3695;53.330;9.876;2023-05-24T03:26:19;103121.22;;;9.20;100.00
7309;BME280;3695;53.330;9.876;2023-05-24T03:28:46;103121.81;;;9.14;100.00
7309;BME280;3695;53.330;9.876;2023-05-24T03:31:14;103124.91;;;9.19;100.00
7309;BME280;3695;53.330;9.876;2023-05-24T03:33:41;103109.00;;;9.16;100.00
7309;BME280;3695;53.330;9.876;2023-05-24T03:36:08;103111.00;;;9.14;100.00
7309;BME280;3695;53.330;9.876;2023-05-24T03:38:35;103138.22;;;9.30;100.00
7309;BME280;3695;53.330;9.876;2023-05-24T03:41:01;103115.94;;;9.01;100.00
7309;BME280;3695;53.330;9.876;2023-05-24T03:43:29;103137.44;;;9.20;100.00
7309;BME280;3695;53.330;9.876;2023-05-24T03:45:55;103112.06;;;8.76;100.00
7309;BME280;3695;53.330;9.876;2023-05-24T03:48:22;103114.00;;;8.83;100.00
7309;BME280;3695;53.330;9.876;2023-05-24T03:50:48;103138.28;;;8.93;100.00
7309;BME280;3695;53.330;9.876;2023-05-24T03:53:15;103139.06;;;9.13;100.00
7309;BME280;3695;53.330;9.876;2023-05-24T03:55:41;103133.81;;;9.29;100.00
7309;BME280;3695;53.330;9.876;2023-05-24T03:58:08;103122.00;;;9.30;100.00
7309;BME280;3695;53.330;9.876;2023-05-24T04:00:36;103116.09;;;9.17;100.00
7309;BME280;3695;53.330;9.876;2023-05-24T04:03:02;103118.91;;;8.98;100.00
7309;BME280;3695;53.330;9.876;2023-05-24T04:05:30;103123.53;;;9.15;100.00
7309;BME280;3695;53.330;9.876;2023-05-24T04:07:57;103111.47;;;9.09;100.00
7309;BME280;3695;53.330;9.876;2023-05-24T04:10:24;103130.41;;;9.09;100.00
7309;BME280;3695;53.330;9.876;2023-05-24T04:12:50;103144.81;;;9.28;100.00
7309;BME280;3695;53.330;9.876;2023-05-24T04:15:17;103139.00;;;9.23;100.00
7309;BME280;3695;53.330;9.876;2023-05-24T04:17:45;103112.22;;;9.02;100.00
7309;BME280;3695;53.330;9.876;2023-05-24T04:20:12;103138.47;;;9.37;100.00
7309;BME280;3695;53.330;9.876;2023-05-24T04:22:39;103099.88;;;9.17;100.00
7309;BME280;3695;53.330;9.876;2023-05-24T04:25:06;103109.50;;;9.47;100.00
7309;BME280;3695;53.330;9.876;2023-05-24T04:27:33;103083.78;;;9.33;100.00
7309;BME280;3695;53.330;9.876;2023-05-24T04:30:00;103065.94;;;9.05;100.00
7309;BME280;3695;53.330;9.876;2023-05-24T04:32:26;103074.44;;;9.10;100.00
7309;BME280;3695;53.330;9.876;2023-05-24T04:34:55;103085.81;;;9.31;100.00
7309;BME280;3695;53.330;9.876;2023-05-24T04:37:22;103072.53;;;9.56;100.00
7309;BME280;3695;53.330;9.876;2023-05-24T04:39:48;103021.22;;;9.36;100.00
7309;BME280;3695;53.330;9.876;2023-05-24T04:42:15;103032.63;;;9.22;100.00
7309;BME280;3695;53.330;9.876;2023-05-24T04:44:42;103028.38;;;9.20;100.00
7309;BME280;3695;53.330;9.876;2023-05-24T04:47:09;103017.84;;;9.17;100.00
7309;BME280;3695;53.330;9.876;2023-05-24T04:49:37;103008.41;;;9.21;100.00
7309;BME280;3695;53.330;9.876;2023-05-24T04:52:05;102995.66;;;9.13;100.00
7309;BME280;3695;53.330;9.876;2023-05-24T04:54:32;102984.59;;;9.24;100.00
7309;BME280;3695;53.330;9.876;2023-05-24T04:56:59;102974.88;;;9.13;100.00
7309;BME280;3695;53.330;9.876;2023-05-24T04:59:26;102989.53;;;9.29;100.00
7309;BME280;3695;53.330;9.876;2023-05-24T05:01:52;102979.16;;;9.42;100.00
7309;BME280;3695;53.330;9.876;2023-05-24T05:04:18;102969.88;;;9.44;100.00
7309;BME280;3695;53.330;9.876;2023-05-24T05:06:45;102943.09;;;9.15;100.00
7309;BME280;3695;53.330;9.876;2023-05-24T05:09:14;102960.25;;;9.24;100.00
7309;BME280;3695;53.330;9.876;2023-05-24T05:11:40;102904.69;;;9.12;100.00
7309;BME280;3695;53.330;9.876;2023-05-24T05:14:07;102895.41;;;9.40;100.00
7309;BME280;3695;53.330;9.876;2023-05-24T05:16:34;102797.16;;;9.14;100.00
7309;BME280;3695;53.330;9.876;2023-05-24T05:19:00;102695.03;;;9.16;100.00
7309;BME280;3695;53.330;9.876;2023-05-24T05:21:28;102686.47;;;9.29;100.00
7309;BME280;3695;53.330;9.876;2023-05-24T05:23:57;102671.75;;;9.23;100.00
7309;BME280;3695;53.330;9.876;2023-05-24T05:26:25;102673.44;;;9.24;100.00
7309;BME280;3695;53.330;9.876;2023-05-24T05:28:52;102655.44;;;9.07;100.00
7309;BME280;3695;53.330;9.876;2023-05-24T05:31:18;102667.75;;;9.43;100.00
7309;BME280;3695;53.330;9.876;2023-05-24T05:33:45;102656.88;;;9.35;100.00
7309;BME280;3695;53.330;9.876;2023-05-24T05:36:11;102644.88;;;9.38;100.00
7309;BME280;3695;53.330;9.876;2023-05-24T05:38:38;102575.94;;;9.50;100.00
7309;BME280;3695;53.330;9.876;2023-05-24T05:41:04;102579.13;;;9.70;100.00
7309;BME280;3695;53.330;9.876;2023-05-24T05:43:32;102581.50;;;9.73;100.00
7309;BME280;3695;53.330;9.876;2023-05-24T05:45:59;102571.97;;;9.36;100.00
7309;BME280;3695;53.330;9.876;2023-05-24T05:48:25;102570.69;;;9.57;100.00
7309;BME280;3695;53.330;9.876;2023-05-24T05:50:52;102581.97;;;9.44;100.00
7309;BME280;3695;53.330;9.876;2023-05-24T05:53:18;102602.50;;;9.63;100.00
7309;BME280;3695;53.330;9.876;2023-05-24T05:55:45;102626.03;;;9.87;100.00
7309;BME280;3695;53.330;9.876;2023-05-24T05:58:11;102608.56;;;9.57;100.00
7309;BME280;3695;53.330;9.876;2023-05-24T06:00:40;102618.41;;;9.66;100.00
7309;BME280;3695;53.330;9.876;2023-05-24T06:03:06;102666.94;;;9.51;100.00
7309;BME280;3695;53.330;9.876;2023-05-24T06:05:32;102678.03;;;9.98;100.00
7309;BME280;3695;53.330;9.876;2023-05-24T06:07:59;102652.44;;;9.93;100.00
7309;BME280;3695;53.330;9.876;2023-05-24T06:10:26;102647.84;;;9.77;100.00
7309;BME280;3695;53.330;9.876;2023-05-24T06:12:52;102638.69;;;9.62;100.00
7309;BME280;3695;53.330;9.876;2023-05-24T06:15:19;102652.59;;;9.75;100.00
7309;BME280;3695;53.330;9.876;2023-05-24T06:17:48;102666.47;;;9.80;100.00
7309;BME280;3695;53.330;9.876;2023-05-24T06:20:15;102675.41;;;9.64;100.00
7309;BME280;3695;53.330;9.876;2023-05-24T06:22:42;102671.78;;;9.39;100.00
7309;BME280;3695;53.330;9.876;2023-05-24T06:25:09;102683.19;;;9.59;100.00
7309;BME280;3695;53.330;9.876;2023-05-24T06:27:38;102691.88;;;9.79;100.00
7309;BME280;3695;53.330;9.876;2023-05-24T06:30:06;102695.09;;;9.91;100.00
7309;BME280;3695;53.330;9.876;2023-05-24T06:32:33;102694.63;;;10.20;100.00
7309;BME280;3695;53.330;9.876;2023-05-24T06:35:01;102673.25;;;9.84;100.00
7309;BME280;3695;53.330;9.876;2023-05-24T06:37:27;102663.44;;;9.91;100.00
7309;BME280;3695;53.330;9.876;2023-05-24T06:39:55;102657.03;;;10.08;100.00
7309;BME280;3695;53.330;9.876;2023-05-24T06:42:21;102665.16;;;10.08;100.00
7309;BME280;3695;53.330;9.876;2023-05-24T06:44:48;102662.75;;;9.73;100.00
7309;BME280;3695;53.330;9.876;2023-05-24T06:47:14;102685.81;;;9.93;100.00
7309;BME280;3695;53.330;9.876;2023-05-24T06:49:41;102686.16;;;10.06;100.00
7309;BME280;3695;53.330;9.876;2023-05-24T06:52:08;102698.50;;;10.09;100.00
7309;BME280;3695;53.330;9.876;2023-05-24T06:54:35;102696.25;;;9.72;100.00
7309;BME280;3695;53.330;9.876;2023-05-24T06:57:02;102713.50;;;9.71;100.00
7309;BME280;3695;53.330;9.876;2023-05-24T06:59:29;102718.59;;;9.74;100.00
7309;BME280;3695;53.330;9.876;2023-05-24T07:01:56;102738.63;;;9.97;100.00
7309;BME280;3695;53.330;9.876;2023-05-24T07:04:22;102731.88;;;10.01;100.00
7309;BME280;3695;53.330;9.876;2023-05-24T07:06:49;102715.66;;;10.34;100.00
7309;BME280;3695;53.330;9.876;2023-05-24T07:09:17;102696.78;;;9.92;100.00
7309;BME280;3695;53.330;9.876;2023-05-24T07:11:43;102698.00;;;9.97;100.00
7309;BME280;3695;53.330;9.876;2023-05-24T07:14:10;102682.09;;;9.94;100.00
7309;BME280;3695;53.330;9.876;2023-05-24T07:16:36;102687.50;;;9.94;100.00
7309;BME280;3695;53.330;9.876;2023-05-24T07:19:03;102707.44;;;9.85;100.00
7309;BME280;3695;53.330;9.876;2023-05-24T07:21:29;102708.00;;;10.13;100.00
7309;BME280;3695;53.330;9.876;2023-05-24T07:23:56;102709.69;;;9.98;100.00
7309;BME280;3695;53.330;9.876;2023-05-24T07:26:24;102719.41;;;10.49;100.00
7309;BME280;3695;53.330;9.876;2023-05-24T07:28:50;102715.00;;;10.48;100.00
7309;BME280;3695;53.330;9.876;2023-05-24T07:31:17;102722.75;;;10.35;100.00
7309;BME280;3695;53.330;9.876;2023-05-24T07:33:43;102721.88;;;10.10;100.00
7309;BME280;3695;53.330;9.876;2023-05-24T07:36:09;102741.41;;;10.30;100.00
7309;BME280;3695;53.330;9.876;2023-05-24T07:38:36;102763.97;;;10.47;100.00
7309;BME280;3695;53.330;9.876;2023-05-24T07:41:03;102757.00;;;10.44;100.00
7309;BME280;3695;53.330;9.876;2023-05-24T07:43:33;102783.09;;;10.61;100.00
7309;BME280;3695;53.330;9.876;2023-05-24T07:46:01;102764.81;;;10.55;100.00
7309;BME280;3695;53.330;9.876;2023-05-24T07:48:28;102785.47;;;10.72;100.00
7309;BME280;3695;53.330;9.876;2023-05-24T07:50:54;102782.75;;;10.81;100.00
7309;BME280;3695;53.330;9.876;2023-05-24T07:53:21;102778.16;;;10.81;100.00
7309;BME280;3695;53.330;9.876;2023-05-24T07:55:48;102784.59;;;10.80;100.00
7309;BME280;3695;53.330;9.876;2023-05-24T07:58:15;102785.97;;;10.76;100.00
7309;BME280;3695;53.330;9.876;2023-05-24T08:00:42;102802.75;;;10.80;100.00
7309;BME280;3695;53.330;9.876;2023-05-24T08:03:09;102796.66;;;11.02;100.00
7309;BME280;3695;53.330;9.876;2023-05-24T08:05:38;102801.00;;;11.27;100.00
7309;BME280;3695;53.330;9.876;2023-05-24T08:08:05;102784.44;;;10.98;100.00
7309;BME280;3695;53.330;9.876;2023-05-24T08:10:31;102789.81;;;11.22;100.00
7309;BME280;3695;53.330;9.876;2023-05-24T08:12:58;102791.31;;;11.41;100.00
7309;BME280;3695;53.330;9.876;2023-05-24T08:15:24;102769.16;;;11.05;100.00
7309;BME280;3695;53.330;9.876;2023-05-24T08:17:52;102774.53;;;11.21;100.00
7309;BME280;3695;53.330;9.876;2023-05-24T08:20:19;102776.69;;;11.42;100.00
7309;BME280;3695;53.330;9.876;2023-05-24T08:22:46;102761.63;;;11.23;100.00
7309;BME280;3695;53.330;9.876;2023-05-24T08:25:13;102777.28;;;11.13;100.00
7309;BME280;3695;53.330;9.876;2023-05-24T08:27:40;102799.53;;;11.00;100.00
7309;BME280;3695;53.330;9.876;2023-05-24T08:30:07;102790.19;;;11.11;100.00
7309;BME280;3695;53.330;9.876;2023-05-24T08:32:35;102804.69;;;11.34;100.00
7309;BME280;3695;53.330;9.876;2023-05-24T08:35:04;102796.41;;;11.36;100.00
7309;BME280;3695;53.330;9.876;2023-05-24T08:37:31;102781.66;;;11.22;100.00
7309;BME280;3695;53.330;9.876;2023-05-24T08:39:58;102782.50;;;11.23;100.00
7309;BME280;3695;53.330;9.876;2023-05-24T08:42:24;102785.06;;;11.16;100.00
7309;BME280;3695;53.330;9.876;2023-05-24T08:44:52;102783.72;;;11.12;100.00
7309;BME280;3695;53.330;9.876;2023-05-24T08:47:24;102777.47;;;11.03;100.00
7309;BME280;3695;53.330;9.876;2023-05-24T08:49:52;102777.13;;;11.07;100.00
7309;BME280;3695;53.330;9.876;2023-05-24T08:52:21;102771.50;;;11.16;100.00
7309;BME280;3695;53.330;9.876;2023-05-24T08:54:48;102787.56;;;11.42;100.00
7309;BME280;3695;53.330;9.876;2023-05-24T08:57:15;102767.06;;;11.23;100.00
7309;BME280;3695;53.330;9.876;2023-05-24T08:59:43;102764.63;;;11.45;100.00
7309;BME280;3695;53.330;9.876;2023-05-24T09:02:12;102761.28;;;11.74;100.00
7309;BME280;3695;53.330;9.876;2023-05-24T09:04:40;102755.66;;;11.83;100.00
7309;BME280;3695;53.330;9.876;2023-05-24T09:07:09;102734.63;;;11.69;100.00
7309;BME280;3695;53.330;9.876;2023-05-24T09:09:42;102748.63;;;11.58;100.00
7309;BME280;3695;53.330;9.876;2023-05-24T09:12:14;102783.75;;;11.59;100.00
7309;BME280;3695;53.330;9.876;2023-05-24T09:14:44;102793.81;;;11.51;100.00
7309;BME280;3695;53.330;9.876;2023-05-24T09:17:11;102773.97;;;11.42;100.00
7309;BME280;3695;53.330;9.876;2023-05-24T09:19:42;102783.50;;;11.85;100.00
7309;BME280;3695;53.330;9.876;2023-05-24T09:22:09;102769.47;;;12.05;100.00
7309;BME280;3695;53.330;9.876;2023-05-24T09:24:41;102744.28;;;12.11;100.00
7309;BME280;3695;53.330;9.876;2023-05-24T09:27:08;102721.91;;;12.46;100.00
7309;BME280;3695;53.330;9.876;2023-05-24T09:29:35;102673.66;;;12.03;100.00
7309;BME280;3695;53.330;9.876;2023-05-24T09:32:01;102692.09;;;11.92;100.00
7309;BME280;3695;53.330;9.876;2023-05-24T09:34:28;102685.88;;;12.07;100.00
7309;BME280;3695;53.330;9.876;2023-05-24T09:36:55;102664.13;;;11.84;100.00
7309;BME280;3695;53.330;9.876;2023-05-24T09:39:22;102643.25;;;11.76;100.00
7309;BME280;3695;53.330;9.876;2023-05-24T09:41:52;102667.94;;;11.97;100.00
7309;BME280;3695;53.330;9.876;2023-05-24T09:44:23;102666.84;;;12.07;100.00
7309;BME280;3695;53.330;9.876;2023-05-24T09:46:49;102684.25;;;11.97;100.00
7309;BME280;3695;53.330;9.876;2023-05-24T09:49:16;102670.03;;;11.56;100.00
7309;BME280;3695;53.330;9.876;2023-05-24T09:51:43;102658.16;;;11.88;100.00
7309;BME280;3695;53.330;9.876;2023-05-24T09:54:11;102636.72;;;11.93;100.00
7309;BME280;3695;53.330;9.876;2023-05-24T09:56:38;102618.59;;;12.23;100.00
7309;BME280;3695;53.330;9.876;2023-05-24T09:59:07;102554.22;;;12.53;100.00
7309;BME280;3695;53.330;9.876;2023-05-24T10:01:34;102505.97;;;12.77;100.00
7309;BME280;3695;53.330;9.876;2023-05-24T10:04:01;102464.13;;;12.42;100.00
7309;BME280;3695;53.330;9.876;2023-05-24T10:06:32;102550.44;;;12.25;100.00
7309;BME280;3695;53.330;9.876;2023-05-24T10:09:02;102584.44;;;12.58;100.00
7309;BME280;3695;53.330;9.876;2023-05-24T10:11:31;102619.31;;;12.40;100.00
7309;BME280;3695;53.330;9.876;2023-05-24T10:13:58;102653.09;;;12.60;100.00
7309;BME280;3695;53.330;9.876;2023-05-24T10:16:26;102662.44;;;12.43;100.00
7309;BME280;3695;53.330;9.876;2023-05-24T10:18:52;102733.59;;;12.70;100.00
7309;BME280;3695;53.330;9.876;2023-05-24T10:21:22;102747.78;;;12.42;100.00
7309;BME280;3695;53.330;9.876;2023-05-24T10:23:51;102769.91;;;12.39;100.00
7309;BME280;3695;53.330;9.876;2023-05-24T10:26:23;102857.66;;;12.33;100.00
7309;BME280;3695;53.330;9.876;2023-05-24T10:28:54;102922.47;;;12.52;100.00
7309;BME280;3695;53.330;9.876;2023-05-24T10:31:24;102961.97;;;12.40;100.00
7309;BME280;3695;53.330;9.876;2023-05-24T10:33:52;102975.47;;;12.17;100.00
7309;BME280;3695;53.330;9.876;2023-05-24T10:36:21;103000.41;;;12.29;100.00
7309;BME280;3695;53.330;9.876;2023-05-24T10:38:48;102976.53;;;12.08;100.00
7309;BME280;3695;53.330;9.876;2023-05-24T10:41:16;103003.25;;;12.44;100.00
7309;BME280;3695;53.330;9.876;2023-05-24T10:43:45;102998.03;;;12.65;100.00
7309;BME280;3695;53.330;9.876;2023-05-24T10:46:14;102996.47;;;12.79;100.00
7309;BME280;3695;53.330;9.876;2023-05-24T10:48:41;102964.69;;;12.71;100.00
7309;BME280;3695;53.330;9.876;2023-05-24T10:51:29;102964.56;;;12.65;100.00
7309;BME280;3695;53.330;9.876;2023-05-24T10:54:09;102973.56;;;12.96;100.00
7309;BME280;3695;53.330;9.876;2023-05-24T10:56:39;102953.63;;;13.27;100.00
7309;BME280;3695;53.330;9.876;2023-05-24T10:59:06;102874.56;;;13.49;100.00
7309;BME280;3695;53.330;9.876;2023-05-24T11:01:33;102796.88;;;13.39;100.00
7309;BME280;3695;53.330;9.876;2023-05-24T11:04:07;102785.13;;;13.23;100.00
7309;BME280;3695;53.330;9.876;2023-05-24T11:06:48;102834.72;;;12.96;100.00
7309;BME280;3695;53.330;9.876;2023-05-24T11:09:15;102855.59;;;13.04;100.00
7309;BME280;3695;53.330;9.876;2023-05-24T11:11:45;102899.34;;;13.25;100.00
7309;BME280;3695;53.330;9.876;2023-05-24T11:14:12;102926.84;;;13.82;100.00
7309;BME280;3695;53.330;9.876;2023-05-24T11:16:39;102887.25;;;12.82;100.00
7309;BME280;3695;53.330;9.876;2023-05-24T11:19:16;102945.50;;;13.18;100.00
7309;BME280;3695;53.330;9.876;2023-05-24T11:21:44;102959.63;;;12.91;100.00
7309;BME280;3695;53.330;9.876;2023-05-24T11:24:12;102832.81;;;13.19;100.00
7309;BME280;3695;53.330;9.876;2023-05-24T11:26:39;102851.34;;;13.01;100.00
7309;BME280;3695;53.330;9.876;2023-05-24T11:29:06;102914.03;;;12.93;100.00
7309;BME280;3695;53.330;9.876;2023-05-24T11:31:33;102974.22;;;12.67;100.00
7309;BME280;3695;53.330;9.876;2023-05-24T11:34:04;103067.81;;;12.97;100.00
7309;BME280;3695;53.330;9.876;2023-05-24T11:36:31;103102.97;;;13.07;100.00
7309;BME280;3695;53.330;9.876;2023-05-24T11:39:00;103149.03;;;12.77;100.00
7309;BME280;3695;53.330;9.876;2023-05-24T11:41:29;103181.16;;;12.74;100.00
7309;BME280;3695;53.330;9.876;2023-05-24T11:43:55;103222.28;;;12.95;100.00
7309;BME280;3695;53.330;9.876;2023-05-24T11:46:22;103212.47;;;12.86;100.00
7309;BME280;3695;53.330;9.876;2023-05-24T11:48:55;103213.47;;;12.93;100.00
7309;BME280;3695;53.330;9.876;2023-05-24T11:51:25;103213.41;;;13.09;100.00
7309;BME280;3695;53.330;9.876;2023-05-24T11:53:51;103225.66;;;13.05;100.00
7309;BME280;3695;53.330;9.876;2023-05-24T11:56:18;103227.84;;;13.18;100.00
7309;BME280;3695;53.330;9.876;2023-05-24T11:58:48;103253.31;;;12.78;100.00
7309;BME280;3695;53.330;9.876;2023-05-24T12:01:22;103302.91;;;13.20;100.00
7309;BME280;3695;53.330;9.876;2023-05-24T12:03:49;103310.72;;;13.15;100.00
7309;BME280;3695;53.330;9.876;2023-05-24T12:06:16;103348.38;;;13.28;100.00
7309;BME280;3695;53.330;9.876;2023-05-24T12:08:43;103357.88;;;13.40;100.00
7309;BME280;3695;53.330;9.876;2023-05-24T12:11:10;103394.22;;;14.11;100.00
7309;BME280;3695;53.330;9.876;2023-05-24T12:13:38;103395.91;;;14.12;100.00
7309;BME280;3695;53.330;9.876;2023-05-24T12:16:06;103418.41;;;14.22;100.00
7309;BME280;3695;53.330;9.876;2023-05-24T12:18:33;103422.34;;;14.51;100.00
7309;BME280;3695;53.330;9.876;2023-05-24T12:20:59;103414.34;;;14.10;100.00
7309;BME280;3695;53.330;9.876;2023-05-24T12:23:26;103476.53;;;14.23;100.00
7309;BME280;3695;53.330;9.876;2023-05-24T12:25:57;103486.28;;;14.09;100.00
7309;BME280;3695;53.330;9.876;2023-05-24T12:28:24;103520.84;;;14.25;100.00
7309;BME280;3695;53.330;9.876;2023-05-24T12:30:51;103520.78;;;13.85;100.00
7309;BME280;3695;53.330;9.876;2023-05-24T12:33:19;103520.47;;;13.72;100.00
7309;BME280;3695;53.330;9.876;2023-05-24T12:35:47;103519.09;;;13.84;100.00
7309;BME280;3695;53.330;9.876;2023-05-24T12:38:14;103541.56;;;13.95;100.00
7309;BME280;3695;53.330;9.876;2023-05-24T12:40:44;103605.97;;;13.96;100.00
7309;BME280;3695;53.330;9.876;2023-05-24T12:43:12;103626.25;;;13.93;100.00
7309;BME280;3695;53.330;9.876;2023-05-24T12:45:40;103654.03;;;14.05;100.00
7309;BME280;3695;53.330;9.876;2023-05-24T12:48:06;103654.88;;;13.89;100.00
7309;BME280;3695;53.330;9.876;2023-05-24T12:50:34;103691.03;;;13.91;100.00
7309;BME280;3695;53.330;9.876;2023-05-24T12:53:01;103718.63;;;14.12;100.00
7309;BME280;3695;53.330;9.876;2023-05-24T12:55:27;103713.03;;;14.22;100.00
7309;BME280;3695;53.330;9.876;2023-05-24T12:57:55;103739.63;;;14.53;100.00
7309;BME280;3695;53.330;9.876;2023-05-24T13:00:23;103703.28;;;13.87;100.00
7309;BME280;3695;53.330;9.876;2023-05-24T13:02:51;103773.00;;;14.14;100.00
7309;BME280;3695;53.330;9.876;2023-05-24T13:05:20;103818.09;;;14.51;100.00
7309;BME280;3695;53.330;9.876;2023-05-24T13:07:49;103803.94;;;14.63;100.00